<?xml version="1.0" encoding="UTF-8" standalone="no" ?>
<gpx xmlns="http://www.topografix.com/GPX/1/1" xmlns:xsi="http://www.w3.org/2001/XMLSchema-instance" xsi:schemaLocation="http://www.topografix.com/GPX/1/1 http://www.topografix.com/GPX/1/1/gpx.xsd" version="1.1" creator="VisuGPX - https://www.visugpx.com">
  <metadata>
    <name>Circuit VTT n°7 : Promenade VTT à la campagne</name>
    <desc><![CDATA[
]]></desc>
  </metadata>
  <trk>
    <name><![CDATA[Circuit VTT n°7 : Promenade VTT à la campagne]]></name>
    <trkseg>
      <trkpt lat="48.49466" lon="4.70115">
        <ele>121</ele>
        <time>2020-02-17T20:10:40.840Z</time>
      </trkpt>
      <trkpt lat="48.49477" lon="4.70256">
        <ele>122</ele>
        <time>2020-02-17T20:10:41.840Z</time>
      </trkpt>
      <trkpt lat="48.49482" lon="4.70493">
        <ele>116</ele>
        <time>2020-02-17T20:10:42.840Z</time>
      </trkpt>
      <trkpt lat="48.4948" lon="4.70706">
        <ele>117</ele>
        <time>2020-02-17T20:10:43.840Z</time>
      </trkpt>
      <trkpt lat="48.49144" lon="4.70721">
        <ele>117</ele>
        <time>2020-02-17T20:10:44.840Z</time>
      </trkpt>
      <trkpt lat="48.49118" lon="4.70767">
        <ele>119</ele>
        <time>2020-02-17T20:10:45.840Z</time>
      </trkpt>
      <trkpt lat="48.49175" lon="4.70834">
        <ele>118</ele>
        <time>2020-02-17T20:10:46.840Z</time>
      </trkpt>
      <trkpt lat="48.49223" lon="4.70909">
        <ele>119</ele>
        <time>2020-02-17T20:10:47.840Z</time>
      </trkpt>
      <trkpt lat="48.4926" lon="4.7098">
        <ele>120</ele>
        <time>2020-02-17T20:10:48.840Z</time>
      </trkpt>
      <trkpt lat="48.49258" lon="4.7102">
        <ele>121</ele>
        <time>2020-02-17T20:10:49.840Z</time>
      </trkpt>
      <trkpt lat="48.49246" lon="4.71197">
        <ele>117</ele>
        <time>2020-02-17T20:10:50.840Z</time>
      </trkpt>
      <trkpt lat="48.49235" lon="4.71346">
        <ele>124</ele>
        <time>2020-02-17T20:10:51.840Z</time>
      </trkpt>
      <trkpt lat="48.49239" lon="4.71403">
        <ele>129</ele>
        <time>2020-02-17T20:10:52.840Z</time>
      </trkpt>
      <trkpt lat="48.49278" lon="4.71603">
        <ele>139</ele>
        <time>2020-02-17T20:10:53.840Z</time>
      </trkpt>
      <trkpt lat="48.49304" lon="4.71719">
        <ele>140</ele>
        <time>2020-02-17T20:10:54.840Z</time>
      </trkpt>
      <trkpt lat="48.49312" lon="4.71814">
        <ele>137</ele>
        <time>2020-02-17T20:10:55.840Z</time>
      </trkpt>
      <trkpt lat="48.49355" lon="4.7196">
        <ele>132</ele>
        <time>2020-02-17T20:10:56.840Z</time>
      </trkpt>
      <trkpt lat="48.49393" lon="4.72075">
        <ele>131</ele>
        <time>2020-02-17T20:10:57.840Z</time>
      </trkpt>
      <trkpt lat="48.49412" lon="4.72093">
        <ele>131</ele>
        <time>2020-02-17T20:10:58.840Z</time>
      </trkpt>
      <trkpt lat="48.49451" lon="4.72125">
        <ele>130</ele>
        <time>2020-02-17T20:10:59.840Z</time>
      </trkpt>
      <trkpt lat="48.49483" lon="4.72162">
        <ele>129</ele>
        <time>2020-02-17T20:11:00.840Z</time>
      </trkpt>
      <trkpt lat="48.49507" lon="4.72199">
        <ele>127</ele>
        <time>2020-02-17T20:11:01.840Z</time>
      </trkpt>
      <trkpt lat="48.49536" lon="4.72259">
        <ele>127</ele>
        <time>2020-02-17T20:11:02.840Z</time>
      </trkpt>
      <trkpt lat="48.49559" lon="4.72294">
        <ele>127</ele>
        <time>2020-02-17T20:11:03.840Z</time>
      </trkpt>
      <trkpt lat="48.4963" lon="4.72387">
        <ele>124</ele>
        <time>2020-02-17T20:11:04.840Z</time>
      </trkpt>
      <trkpt lat="48.49655" lon="4.72349">
        <ele>123</ele>
        <time>2020-02-17T20:11:05.840Z</time>
      </trkpt>
      <trkpt lat="48.49683" lon="4.72335">
        <ele>122</ele>
        <time>2020-02-17T20:11:06.840Z</time>
      </trkpt>
      <trkpt lat="48.49726" lon="4.72312">
        <ele>121</ele>
        <time>2020-02-17T20:11:07.840Z</time>
      </trkpt>
      <trkpt lat="48.49741" lon="4.72289">
        <ele>119</ele>
        <time>2020-02-17T20:11:08.840Z</time>
      </trkpt>
      <trkpt lat="48.49755" lon="4.72244">
        <ele>119</ele>
        <time>2020-02-17T20:11:09.840Z</time>
      </trkpt>
      <trkpt lat="48.4976" lon="4.72188">
        <ele>119</ele>
        <time>2020-02-17T20:11:10.840Z</time>
      </trkpt>
      <trkpt lat="48.49729" lon="4.72091">
        <ele>118</ele>
        <time>2020-02-17T20:11:11.840Z</time>
      </trkpt>
      <trkpt lat="48.49671" lon="4.719">
        <ele>119</ele>
        <time>2020-02-17T20:11:12.840Z</time>
      </trkpt>
      <trkpt lat="48.49641" lon="4.7177">
        <ele>120</ele>
        <time>2020-02-17T20:11:13.840Z</time>
      </trkpt>
      <trkpt lat="48.49612" lon="4.71598">
        <ele>117</ele>
        <time>2020-02-17T20:11:14.840Z</time>
      </trkpt>
      <trkpt lat="48.49599" lon="4.71523">
        <ele>118</ele>
        <time>2020-02-17T20:11:15.840Z</time>
      </trkpt>
      <trkpt lat="48.49637" lon="4.71356">
        <ele>119</ele>
        <time>2020-02-17T20:11:16.840Z</time>
      </trkpt>
      <trkpt lat="48.49723" lon="4.70952">
        <ele>122</ele>
        <time>2020-02-17T20:11:17.840Z</time>
      </trkpt>
      <trkpt lat="48.49822" lon="4.70479">
        <ele>119</ele>
        <time>2020-02-17T20:11:18.840Z</time>
      </trkpt>
      <trkpt lat="48.49837" lon="4.70433">
        <ele>121</ele>
        <time>2020-02-17T20:11:19.840Z</time>
      </trkpt>
      <trkpt lat="48.49929" lon="4.70482">
        <ele>119</ele>
        <time>2020-02-17T20:11:20.840Z</time>
      </trkpt>
      <trkpt lat="48.50012" lon="4.70534">
        <ele>120</ele>
        <time>2020-02-17T20:11:21.840Z</time>
      </trkpt>
      <trkpt lat="48.50064" lon="4.70546">
        <ele>120</ele>
        <time>2020-02-17T20:11:22.840Z</time>
      </trkpt>
      <trkpt lat="48.50108" lon="4.70535">
        <ele>121</ele>
        <time>2020-02-17T20:11:23.840Z</time>
      </trkpt>
      <trkpt lat="48.50191" lon="4.70501">
        <ele>121</ele>
        <time>2020-02-17T20:11:24.840Z</time>
      </trkpt>
      <trkpt lat="48.50288" lon="4.70412">
        <ele>122</ele>
        <time>2020-02-17T20:11:25.840Z</time>
      </trkpt>
      <trkpt lat="48.50434" lon="4.70279">
        <ele>122</ele>
        <time>2020-02-17T20:11:26.840Z</time>
      </trkpt>
      <trkpt lat="48.50435" lon="4.7025">
        <ele>122</ele>
        <time>2020-02-17T20:11:27.840Z</time>
      </trkpt>
      <trkpt lat="48.50448" lon="4.70229">
        <ele>124</ele>
        <time>2020-02-17T20:11:28.840Z</time>
      </trkpt>
      <trkpt lat="48.50482" lon="4.70217">
        <ele>126</ele>
        <time>2020-02-17T20:11:29.840Z</time>
      </trkpt>
      <trkpt lat="48.50688" lon="4.70118">
        <ele>128</ele>
        <time>2020-02-17T20:11:30.840Z</time>
      </trkpt>
      <trkpt lat="48.5071" lon="4.7009">
        <ele>126</ele>
        <time>2020-02-17T20:11:31.840Z</time>
      </trkpt>
      <trkpt lat="48.50731" lon="4.70028">
        <ele>128</ele>
        <time>2020-02-17T20:11:32.840Z</time>
      </trkpt>
      <trkpt lat="48.50803" lon="4.70003">
        <ele>124</ele>
        <time>2020-02-17T20:11:33.840Z</time>
      </trkpt>
      <trkpt lat="48.51039" lon="4.69908">
        <ele>121</ele>
        <time>2020-02-17T20:11:34.840Z</time>
      </trkpt>
      <trkpt lat="48.51096" lon="4.69882">
        <ele>122</ele>
        <time>2020-02-17T20:11:35.840Z</time>
      </trkpt>
      <trkpt lat="48.51113" lon="4.69893">
        <ele>122</ele>
        <time>2020-02-17T20:11:36.840Z</time>
      </trkpt>
      <trkpt lat="48.51136" lon="4.69948">
        <ele>123</ele>
        <time>2020-02-17T20:11:37.840Z</time>
      </trkpt>
      <trkpt lat="48.51142" lon="4.70011">
        <ele>123</ele>
        <time>2020-02-17T20:11:38.840Z</time>
      </trkpt>
      <trkpt lat="48.51153" lon="4.70052">
        <ele>123</ele>
        <time>2020-02-17T20:11:39.840Z</time>
      </trkpt>
      <trkpt lat="48.51191" lon="4.70056">
        <ele>122</ele>
        <time>2020-02-17T20:11:40.840Z</time>
      </trkpt>
      <trkpt lat="48.51213" lon="4.70077">
        <ele>121</ele>
        <time>2020-02-17T20:11:41.840Z</time>
      </trkpt>
      <trkpt lat="48.51247" lon="4.70123">
        <ele>122</ele>
        <time>2020-02-17T20:11:42.840Z</time>
      </trkpt>
      <trkpt lat="48.51267" lon="4.70184">
        <ele>122</ele>
        <time>2020-02-17T20:11:43.840Z</time>
      </trkpt>
      <trkpt lat="48.51287" lon="4.70277">
        <ele>125</ele>
        <time>2020-02-17T20:11:44.840Z</time>
      </trkpt>
      <trkpt lat="48.51325" lon="4.70456">
        <ele>122</ele>
        <time>2020-02-17T20:11:45.840Z</time>
      </trkpt>
      <trkpt lat="48.51345" lon="4.70523">
        <ele>122</ele>
        <time>2020-02-17T20:11:46.840Z</time>
      </trkpt>
      <trkpt lat="48.51373" lon="4.7058">
        <ele>122</ele>
        <time>2020-02-17T20:11:47.840Z</time>
      </trkpt>
      <trkpt lat="48.51398" lon="4.70618">
        <ele>119</ele>
        <time>2020-02-17T20:11:48.840Z</time>
      </trkpt>
      <trkpt lat="48.51476" lon="4.70673">
        <ele>118</ele>
        <time>2020-02-17T20:11:49.840Z</time>
      </trkpt>
      <trkpt lat="48.51512" lon="4.70698">
        <ele>120</ele>
        <time>2020-02-17T20:11:50.840Z</time>
      </trkpt>
      <trkpt lat="48.5162" lon="4.70793">
        <ele>118</ele>
        <time>2020-02-17T20:11:51.840Z</time>
      </trkpt>
      <trkpt lat="48.51689" lon="4.70879">
        <ele>116</ele>
        <time>2020-02-17T20:11:52.840Z</time>
      </trkpt>
      <trkpt lat="48.51742" lon="4.70966">
        <ele>119</ele>
        <time>2020-02-17T20:11:53.840Z</time>
      </trkpt>
      <trkpt lat="48.51784" lon="4.71084">
        <ele>119</ele>
        <time>2020-02-17T20:11:54.840Z</time>
      </trkpt>
      <trkpt lat="48.51828" lon="4.71212">
        <ele>119</ele>
        <time>2020-02-17T20:11:55.840Z</time>
      </trkpt>
      <trkpt lat="48.51851" lon="4.71299">
        <ele>119</ele>
        <time>2020-02-17T20:11:56.840Z</time>
      </trkpt>
      <trkpt lat="48.51845" lon="4.71378">
        <ele>120</ele>
        <time>2020-02-17T20:11:57.840Z</time>
      </trkpt>
      <trkpt lat="48.5185" lon="4.71428">
        <ele>119</ele>
        <time>2020-02-17T20:11:58.840Z</time>
      </trkpt>
      <trkpt lat="48.51881" lon="4.71575">
        <ele>119</ele>
        <time>2020-02-17T20:11:59.840Z</time>
      </trkpt>
      <trkpt lat="48.51907" lon="4.71731">
        <ele>121</ele>
        <time>2020-02-17T20:12:00.840Z</time>
      </trkpt>
      <trkpt lat="48.51928" lon="4.71885">
        <ele>124</ele>
        <time>2020-02-17T20:12:01.840Z</time>
      </trkpt>
      <trkpt lat="48.51929" lon="4.71929">
        <ele>124</ele>
        <time>2020-02-17T20:12:02.840Z</time>
      </trkpt>
      <trkpt lat="48.51928" lon="4.72152">
        <ele>128</ele>
        <time>2020-02-17T20:12:03.840Z</time>
      </trkpt>
      <trkpt lat="48.51933" lon="4.72335">
        <ele>129</ele>
        <time>2020-02-17T20:12:04.840Z</time>
      </trkpt>
      <trkpt lat="48.51945" lon="4.72466">
        <ele>126</ele>
        <time>2020-02-17T20:12:05.840Z</time>
      </trkpt>
      <trkpt lat="48.51963" lon="4.72563">
        <ele>127</ele>
        <time>2020-02-17T20:12:06.840Z</time>
      </trkpt>
      <trkpt lat="48.51985" lon="4.72634">
        <ele>130</ele>
        <time>2020-02-17T20:12:07.840Z</time>
      </trkpt>
      <trkpt lat="48.52073" lon="4.72773">
        <ele>129</ele>
        <time>2020-02-17T20:12:08.840Z</time>
      </trkpt>
      <trkpt lat="48.52172" lon="4.72921">
        <ele>126</ele>
        <time>2020-02-17T20:12:09.840Z</time>
      </trkpt>
      <trkpt lat="48.5221" lon="4.72996">
        <ele>129</ele>
        <time>2020-02-17T20:12:10.840Z</time>
      </trkpt>
      <trkpt lat="48.52233" lon="4.73068">
        <ele>132</ele>
        <time>2020-02-17T20:12:11.840Z</time>
      </trkpt>
      <trkpt lat="48.52243" lon="4.73156">
        <ele>132</ele>
        <time>2020-02-17T20:12:12.840Z</time>
      </trkpt>
      <trkpt lat="48.52255" lon="4.7334">
        <ele>128</ele>
        <time>2020-02-17T20:12:13.840Z</time>
      </trkpt>
      <trkpt lat="48.5228" lon="4.73336">
        <ele>129</ele>
        <time>2020-02-17T20:12:14.840Z</time>
      </trkpt>
      <trkpt lat="48.52349" lon="4.73336">
        <ele>126</ele>
        <time>2020-02-17T20:12:15.840Z</time>
      </trkpt>
      <trkpt lat="48.52394" lon="4.73419">
        <ele>121</ele>
        <time>2020-02-17T20:12:16.840Z</time>
      </trkpt>
      <trkpt lat="48.52394" lon="4.73554">
        <ele>121</ele>
        <time>2020-02-17T20:12:17.840Z</time>
      </trkpt>
      <trkpt lat="48.52394" lon="4.73647">
        <ele>121</ele>
        <time>2020-02-17T20:12:18.840Z</time>
      </trkpt>
      <trkpt lat="48.52402" lon="4.7377">
        <ele>122</ele>
        <time>2020-02-17T20:12:19.840Z</time>
      </trkpt>
      <trkpt lat="48.52418" lon="4.73943">
        <ele>125</ele>
        <time>2020-02-17T20:12:20.840Z</time>
      </trkpt>
      <trkpt lat="48.52418" lon="4.74029">
        <ele>127</ele>
        <time>2020-02-17T20:12:21.840Z</time>
      </trkpt>
      <trkpt lat="48.5239" lon="4.74069">
        <ele>128</ele>
        <time>2020-02-17T20:12:22.840Z</time>
      </trkpt>
      <trkpt lat="48.52338" lon="4.74127">
        <ele>129</ele>
        <time>2020-02-17T20:12:23.840Z</time>
      </trkpt>
      <trkpt lat="48.52315" lon="4.74162">
        <ele>130</ele>
        <time>2020-02-17T20:12:24.840Z</time>
      </trkpt>
      <trkpt lat="48.52292" lon="4.74218">
        <ele>128</ele>
        <time>2020-02-17T20:12:25.840Z</time>
      </trkpt>
      <trkpt lat="48.52265" lon="4.74227">
        <ele>127</ele>
        <time>2020-02-17T20:12:26.840Z</time>
      </trkpt>
      <trkpt lat="48.51966" lon="4.74269">
        <ele>135</ele>
        <time>2020-02-17T20:12:27.840Z</time>
      </trkpt>
      <trkpt lat="48.51823" lon="4.74283">
        <ele>134</ele>
        <time>2020-02-17T20:12:28.840Z</time>
      </trkpt>
      <trkpt lat="48.5162" lon="4.74307">
        <ele>136</ele>
        <time>2020-02-17T20:12:29.840Z</time>
      </trkpt>
      <trkpt lat="48.51516" lon="4.74323">
        <ele>136</ele>
        <time>2020-02-17T20:12:30.840Z</time>
      </trkpt>
      <trkpt lat="48.51506" lon="4.74121">
        <ele>134</ele>
        <time>2020-02-17T20:12:31.840Z</time>
      </trkpt>
      <trkpt lat="48.51501" lon="4.74002">
        <ele>132</ele>
        <time>2020-02-17T20:12:32.840Z</time>
      </trkpt>
      <trkpt lat="48.51486" lon="4.73712">
        <ele>130</ele>
        <time>2020-02-17T20:12:33.840Z</time>
      </trkpt>
      <trkpt lat="48.51471" lon="4.73449">
        <ele>131</ele>
        <time>2020-02-17T20:12:34.840Z</time>
      </trkpt>
      <trkpt lat="48.51466" lon="4.73442">
        <ele>131</ele>
        <time>2020-02-17T20:12:35.840Z</time>
      </trkpt>
      <trkpt lat="48.51449" lon="4.73435">
        <ele>131</ele>
        <time>2020-02-17T20:12:36.840Z</time>
      </trkpt>
      <trkpt lat="48.51427" lon="4.73407">
        <ele>131</ele>
        <time>2020-02-17T20:12:37.840Z</time>
      </trkpt>
      <trkpt lat="48.514" lon="4.73399">
        <ele>130</ele>
        <time>2020-02-17T20:12:38.840Z</time>
      </trkpt>
      <trkpt lat="48.513" lon="4.73369">
        <ele>127</ele>
        <time>2020-02-17T20:12:39.840Z</time>
      </trkpt>
      <trkpt lat="48.51123" lon="4.73328">
        <ele>127</ele>
        <time>2020-02-17T20:12:40.840Z</time>
      </trkpt>
      <trkpt lat="48.50988" lon="4.7329">
        <ele>129</ele>
        <time>2020-02-17T20:12:41.840Z</time>
      </trkpt>
      <trkpt lat="48.50944" lon="4.7328">
        <ele>130</ele>
        <time>2020-02-17T20:12:42.840Z</time>
      </trkpt>
      <trkpt lat="48.50814" lon="4.73243">
        <ele>134</ele>
        <time>2020-02-17T20:12:43.840Z</time>
      </trkpt>
      <trkpt lat="48.5068" lon="4.73197">
        <ele>133</ele>
        <time>2020-02-17T20:12:44.840Z</time>
      </trkpt>
      <trkpt lat="48.50666" lon="4.73184">
        <ele>133</ele>
        <time>2020-02-17T20:12:45.840Z</time>
      </trkpt>
      <trkpt lat="48.50605" lon="4.731">
        <ele>130</ele>
        <time>2020-02-17T20:12:46.840Z</time>
      </trkpt>
      <trkpt lat="48.50541" lon="4.7297">
        <ele>127</ele>
        <time>2020-02-17T20:12:47.840Z</time>
      </trkpt>
      <trkpt lat="48.50516" lon="4.72928">
        <ele>125</ele>
        <time>2020-02-17T20:12:48.840Z</time>
      </trkpt>
      <trkpt lat="48.50439" lon="4.72861">
        <ele>124</ele>
        <time>2020-02-17T20:12:49.840Z</time>
      </trkpt>
      <trkpt lat="48.50379" lon="4.7281">
        <ele>123</ele>
        <time>2020-02-17T20:12:50.840Z</time>
      </trkpt>
      <trkpt lat="48.50335" lon="4.72768">
        <ele>123</ele>
        <time>2020-02-17T20:12:51.840Z</time>
      </trkpt>
      <trkpt lat="48.50327" lon="4.72788">
        <ele>123</ele>
        <time>2020-02-17T20:12:52.840Z</time>
      </trkpt>
      <trkpt lat="48.50279" lon="4.72914">
        <ele>124</ele>
        <time>2020-02-17T20:12:53.840Z</time>
      </trkpt>
      <trkpt lat="48.50244" lon="4.72982">
        <ele>122</ele>
        <time>2020-02-17T20:12:54.840Z</time>
      </trkpt>
      <trkpt lat="48.5021" lon="4.73031">
        <ele>123</ele>
        <time>2020-02-17T20:12:55.840Z</time>
      </trkpt>
      <trkpt lat="48.50195" lon="4.73005">
        <ele>122</ele>
        <time>2020-02-17T20:12:56.840Z</time>
      </trkpt>
      <trkpt lat="48.50161" lon="4.72943">
        <ele>123</ele>
        <time>2020-02-17T20:12:57.840Z</time>
      </trkpt>
      <trkpt lat="48.50078" lon="4.7278">
        <ele>121</ele>
        <time>2020-02-17T20:12:58.840Z</time>
      </trkpt>
      <trkpt lat="48.50039" lon="4.72717">
        <ele>121</ele>
        <time>2020-02-17T20:12:59.840Z</time>
      </trkpt>
      <trkpt lat="48.50009" lon="4.72689">
        <ele>120</ele>
        <time>2020-02-17T20:13:00.840Z</time>
      </trkpt>
      <trkpt lat="48.49968" lon="4.7266">
        <ele>119</ele>
        <time>2020-02-17T20:13:01.840Z</time>
      </trkpt>
      <trkpt lat="48.49917" lon="4.72627">
        <ele>120</ele>
        <time>2020-02-17T20:13:02.840Z</time>
      </trkpt>
      <trkpt lat="48.49876" lon="4.72593">
        <ele>121</ele>
        <time>2020-02-17T20:13:03.840Z</time>
      </trkpt>
      <trkpt lat="48.49831" lon="4.72528">
        <ele>120</ele>
        <time>2020-02-17T20:13:04.840Z</time>
      </trkpt>
      <trkpt lat="48.49791" lon="4.72471">
        <ele>118</ele>
        <time>2020-02-17T20:13:05.840Z</time>
      </trkpt>
      <trkpt lat="48.49752" lon="4.72393">
        <ele>119</ele>
        <time>2020-02-17T20:13:06.840Z</time>
      </trkpt>
      <trkpt lat="48.49727" lon="4.72332">
        <ele>121</ele>
        <time>2020-02-17T20:13:07.840Z</time>
      </trkpt>
      <trkpt lat="48.4972" lon="4.72319">
        <ele>121</ele>
        <time>2020-02-17T20:13:08.840Z</time>
      </trkpt>
      <trkpt lat="48.49671" lon="4.72337">
        <ele>122</ele>
        <time>2020-02-17T20:13:09.840Z</time>
      </trkpt>
      <trkpt lat="48.49654" lon="4.72354">
        <ele>123</ele>
        <time>2020-02-17T20:13:10.840Z</time>
      </trkpt>
      <trkpt lat="48.49631" lon="4.72389">
        <ele>124</ele>
        <time>2020-02-17T20:13:11.840Z</time>
      </trkpt>
      <trkpt lat="48.49574" lon="4.72312">
        <ele>127</ele>
        <time>2020-02-17T20:13:12.840Z</time>
      </trkpt>
      <trkpt lat="48.49538" lon="4.72261">
        <ele>127</ele>
        <time>2020-02-17T20:13:13.840Z</time>
      </trkpt>
      <trkpt lat="48.4951" lon="4.72295">
        <ele>128</ele>
        <time>2020-02-17T20:13:14.840Z</time>
      </trkpt>
      <trkpt lat="48.49474" lon="4.72336">
        <ele>128</ele>
        <time>2020-02-17T20:13:15.840Z</time>
      </trkpt>
      <trkpt lat="48.49457" lon="4.72337">
        <ele>128</ele>
        <time>2020-02-17T20:13:16.840Z</time>
      </trkpt>
      <trkpt lat="48.49416" lon="4.72338">
        <ele>129</ele>
        <time>2020-02-17T20:13:17.840Z</time>
      </trkpt>
      <trkpt lat="48.49305" lon="4.72328">
        <ele>132</ele>
        <time>2020-02-17T20:13:18.840Z</time>
      </trkpt>
      <trkpt lat="48.4915" lon="4.72311">
        <ele>134</ele>
        <time>2020-02-17T20:13:19.840Z</time>
      </trkpt>
      <trkpt lat="48.49132" lon="4.72304">
        <ele>134</ele>
        <time>2020-02-17T20:13:20.840Z</time>
      </trkpt>
      <trkpt lat="48.49106" lon="4.72268">
        <ele>136</ele>
        <time>2020-02-17T20:13:21.840Z</time>
      </trkpt>
      <trkpt lat="48.49064" lon="4.72174">
        <ele>138</ele>
        <time>2020-02-17T20:13:22.840Z</time>
      </trkpt>
      <trkpt lat="48.49031" lon="4.72104">
        <ele>139</ele>
        <time>2020-02-17T20:13:23.840Z</time>
      </trkpt>
      <trkpt lat="48.48808" lon="4.72191">
        <ele>150</ele>
        <time>2020-02-17T20:13:24.840Z</time>
      </trkpt>
      <trkpt lat="48.48792" lon="4.72112">
        <ele>150</ele>
        <time>2020-02-17T20:13:25.840Z</time>
      </trkpt>
      <trkpt lat="48.48768" lon="4.71991">
        <ele>142</ele>
        <time>2020-02-17T20:13:26.840Z</time>
      </trkpt>
      <trkpt lat="48.4874" lon="4.71924">
        <ele>141</ele>
        <time>2020-02-17T20:13:27.840Z</time>
      </trkpt>
      <trkpt lat="48.48703" lon="4.71851">
        <ele>137</ele>
        <time>2020-02-17T20:13:28.840Z</time>
      </trkpt>
      <trkpt lat="48.48687" lon="4.71791">
        <ele>135</ele>
        <time>2020-02-17T20:13:29.840Z</time>
      </trkpt>
      <trkpt lat="48.48672" lon="4.71677">
        <ele>127</ele>
        <time>2020-02-17T20:13:30.840Z</time>
      </trkpt>
      <trkpt lat="48.48639" lon="4.71471">
        <ele>120</ele>
        <time>2020-02-17T20:13:31.840Z</time>
      </trkpt>
      <trkpt lat="48.48613" lon="4.71333">
        <ele>116</ele>
        <time>2020-02-17T20:13:32.840Z</time>
      </trkpt>
      <trkpt lat="48.48607" lon="4.71309">
        <ele>116</ele>
        <time>2020-02-17T20:13:33.840Z</time>
      </trkpt>
      <trkpt lat="48.48599" lon="4.71248">
        <ele>118</ele>
        <time>2020-02-17T20:13:34.840Z</time>
      </trkpt>
      <trkpt lat="48.48614" lon="4.71216">
        <ele>118</ele>
        <time>2020-02-17T20:13:35.840Z</time>
      </trkpt>
      <trkpt lat="48.48674" lon="4.71168">
        <ele>117</ele>
        <time>2020-02-17T20:13:36.840Z</time>
      </trkpt>
      <trkpt lat="48.4876" lon="4.71108">
        <ele>118</ele>
        <time>2020-02-17T20:13:37.840Z</time>
      </trkpt>
      <trkpt lat="48.48783" lon="4.71073">
        <ele>117</ele>
        <time>2020-02-17T20:13:38.840Z</time>
      </trkpt>
      <trkpt lat="48.48793" lon="4.7103">
        <ele>117</ele>
        <time>2020-02-17T20:13:39.840Z</time>
      </trkpt>
      <trkpt lat="48.48794" lon="4.70986">
        <ele>118</ele>
        <time>2020-02-17T20:13:40.840Z</time>
      </trkpt>
      <trkpt lat="48.48791" lon="4.7095">
        <ele>119</ele>
        <time>2020-02-17T20:13:41.840Z</time>
      </trkpt>
      <trkpt lat="48.48769" lon="4.70856">
        <ele>118</ele>
        <time>2020-02-17T20:13:42.840Z</time>
      </trkpt>
      <trkpt lat="48.48804" lon="4.70837">
        <ele>117</ele>
        <time>2020-02-17T20:13:43.840Z</time>
      </trkpt>
      <trkpt lat="48.48891" lon="4.70772">
        <ele>114</ele>
        <time>2020-02-17T20:13:44.840Z</time>
      </trkpt>
      <trkpt lat="48.48954" lon="4.70738">
        <ele>115</ele>
        <time>2020-02-17T20:13:45.840Z</time>
      </trkpt>
      <trkpt lat="48.48993" lon="4.70726">
        <ele>116</ele>
        <time>2020-02-17T20:13:46.840Z</time>
      </trkpt>
      <trkpt lat="48.49017" lon="4.70727">
        <ele>116</ele>
        <time>2020-02-17T20:13:47.840Z</time>
      </trkpt>
      <trkpt lat="48.49018" lon="4.70702">
        <ele>116</ele>
        <time>2020-02-17T20:13:48.840Z</time>
      </trkpt>
      <trkpt lat="48.49031" lon="4.70452">
        <ele>122</ele>
        <time>2020-02-17T20:13:49.840Z</time>
      </trkpt>
      <trkpt lat="48.49037" lon="4.70332">
        <ele>121</ele>
        <time>2020-02-17T20:13:50.840Z</time>
      </trkpt>
      <trkpt lat="48.49022" lon="4.70257">
        <ele>117</ele>
        <time>2020-02-17T20:13:51.840Z</time>
      </trkpt>
      <trkpt lat="48.49008" lon="4.70202">
        <ele>118</ele>
        <time>2020-02-17T20:13:52.840Z</time>
      </trkpt>
      <trkpt lat="48.49025" lon="4.7019">
        <ele>119</ele>
        <time>2020-02-17T20:13:53.840Z</time>
      </trkpt>
      <trkpt lat="48.49109" lon="4.70121">
        <ele>120</ele>
        <time>2020-02-17T20:13:54.840Z</time>
      </trkpt>
      <trkpt lat="48.49155" lon="4.70092">
        <ele>121</ele>
        <time>2020-02-17T20:13:55.840Z</time>
      </trkpt>
      <trkpt lat="48.4919" lon="4.70073">
        <ele>121</ele>
        <time>2020-02-17T20:13:56.840Z</time>
      </trkpt>
      <trkpt lat="48.49201" lon="4.7005">
        <ele>121</ele>
        <time>2020-02-17T20:13:57.840Z</time>
      </trkpt>
      <trkpt lat="48.49211" lon="4.69993">
        <ele>120</ele>
        <time>2020-02-17T20:13:58.840Z</time>
      </trkpt>
      <trkpt lat="48.4924" lon="4.69993">
        <ele>119</ele>
        <time>2020-02-17T20:13:59.840Z</time>
      </trkpt>
      <trkpt lat="48.49269" lon="4.70013">
        <ele>119</ele>
        <time>2020-02-17T20:14:00.840Z</time>
      </trkpt>
      <trkpt lat="48.49349" lon="4.70104">
        <ele>118</ele>
        <time>2020-02-17T20:14:01.840Z</time>
      </trkpt>
      <trkpt lat="48.49377" lon="4.70128">
        <ele>118</ele>
        <time>2020-02-17T20:14:02.840Z</time>
      </trkpt>
      <trkpt lat="48.4941" lon="4.70136">
        <ele>118</ele>
        <time>2020-02-17T20:14:03.840Z</time>
      </trkpt>
      <trkpt lat="48.49466" lon="4.70116">
        <ele>121</ele>
        <time>2020-02-17T20:14:04.840Z</time>
      </trkpt>
    </trkseg>
  </trk>
</gpx>